sensor_id;sensor_type;location;lat;lon;timestamp;pressure;altitude;pressure_sealevel;temperature;humidity
70411;BME280;57832;46.038;11.398;2023-02-10T00:01:45;98708.75;;;-5.74;100.00
70411;BME280;57832;46.038;11.398;2023-02-10T00:04:12;98713.16;;;-5.90;100.00
70411;BME280;57832;46.038;11.398;2023-02-10T00:06:38;98716.00;;;-5.95;100.00
70411;BME280;57832;46.038;11.398;2023-02-10T00:09:06;98714.78;;;-5.89;100.00
70411;BME280;57832;46.038;11.398;2023-02-10T00:11:32;98710.50;;;-5.74;100.00
70411;BME280;57832;46.038;11.398;2023-02-10T00:14:17;98713.44;;;-5.95;100.00
70411;BME280;57832;46.038;11.398;2023-02-10T00:16:43;98719.06;;;-5.75;100.00
70411;BME280;57832;46.038;11.398;2023-02-10T00:19:08;98718.28;;;-5.90;100.00
70411;BME280;57832;46.038;11.398;2023-02-10T00:21:34;98719.69;;;-5.99;100.00
70411;BME280;57832;46.038;11.398;2023-02-10T00:24:00;98717.97;;;-5.98;100.00
70411;BME280;57832;46.038;11.398;2023-02-10T00:26:25;98722.78;;;-6.08;100.00
70411;BME280;57832;46.038;11.398;2023-02-10T00:28:51;98731.28;;;-6.22;100.00
70411;BME280;57832;46.038;11.398;2023-02-10T00:31:17;98736.97;;;-5.90;100.00
70411;BME280;57832;46.038;11.398;2023-02-10T00:33:46;98733.84;;;-6.36;100.00
70411;BME280;57832;46.038;11.398;2023-02-10T00:36:13;98733.56;;;-6.03;100.00
70411;BME280;57832;46.038;11.398;2023-02-10T00:38:40;98735.00;;;-5.99;100.00
70411;BME280;57832;46.038;11.398;2023-02-10T00:41:14;98728.91;;;-6.54;100.00
70411;BME280;57832;46.038;11.398;2023-02-10T00:43:40;98730.63;;;-6.69;100.00
70411;BME280;57832;46.038;11.398;2023-02-10T00:46:08;98726.28;;;-6.38;100.00
70411;BME280;57832;46.038;11.398;2023-02-10T00:48:34;98718.06;;;-6.29;100.00
70411;BME280;57832;46.038;11.398;2023-02-10T00:50:59;98725.63;;;-6.42;100.00
70411;BME280;57832;46.038;11.398;2023-02-10T00:53:25;98725.09;;;-6.32;100.00
70411;BME280;57832;46.038;11.398;2023-02-10T00:55:51;98730.28;;;-6.34;100.00
70411;BME280;57832;46.038;11.398;2023-02-10T00:58:16;98727.59;;;-6.61;100.00
70411;BME280;57832;46.038;11.398;2023-02-10T01:00:42;98720.06;;;-6.48;100.00
70411;BME280;57832;46.038;11.398;2023-02-10T01:03:08;98714.97;;;-6.34;100.00
70411;BME280;57832;46.038;11.398;2023-02-10T01:05:33;98712.03;;;-6.57;100.00
70411;BME280;57832;46.038;11.398;2023-02-10T01:07:59;98716.16;;;-6.40;100.00
70411;BME280;57832;46.038;11.398;2023-02-10T01:10:24;98722.44;;;-6.60;100.00
70411;BME280;57832;46.038;11.398;2023-02-10T01:12:50;98721.94;;;-6.66;100.00
70411;BME280;57832;46.038;11.398;2023-02-10T01:15:16;98716.84;;;-6.66;100.00
70411;BME280;57832;46.038;11.398;2023-02-10T01:17:41;98713.84;;;-6.59;100.00
70411;BME280;57832;46.038;11.398;2023-02-10T01:20:07;98708.38;;;-6.67;100.00
70411;BME280;57832;46.038;11.398;2023-02-10T01:22:34;98702.63;;;-6.70;100.00
70411;BME280;57832;46.038;11.398;2023-02-10T01:25:00;98708.13;;;-6.62;100.00
70411;BME280;57832;46.038;11.398;2023-02-10T01:27:25;98700.25;;;-6.74;100.00
70411;BME280;57832;46.038;11.398;2023-02-10T01:29:51;98697.59;;;-6.72;100.00
70411;BME280;57832;46.038;11.398;2023-02-10T01:32:16;98694.88;;;-6.55;100.00
70411;BME280;57832;46.038;11.398;2023-02-10T01:34:42;98690.22;;;-6.77;100.00
70411;BME280;57832;46.038;11.398;2023-02-10T01:37:07;98684.97;;;-6.59;100.00
70411;BME280;57832;46.038;11.398;2023-02-10T01:39:33;98684.59;;;-6.67;100.00
70411;BME280;57832;46.038;11.398;2023-02-10T01:41:59;98679.75;;;-6.58;100.00
70411;BME280;57832;46.038;11.398;2023-02-10T01:46:50;98679.41;;;-6.51;100.00
70411;BME280;57832;46.038;11.398;2023-02-10T01:49:18;98678.19;;;-6.60;100.00
70411;BME280;57832;46.038;11.398;2023-02-10T01:54:14;98678.75;;;-6.69;100.00
70411;BME280;57832;46.038;11.398;2023-02-10T01:56:42;98680.09;;;-6.64;100.00
70411;BME280;57832;46.038;11.398;2023-02-10T01:59:07;98682.50;;;-6.61;100.00
70411;BME280;57832;46.038;11.398;2023-02-10T02:01:33;98691.88;;;-6.76;100.00
70411;BME280;57832;46.038;11.398;2023-02-10T02:04:00;98684.22;;;-6.76;100.00
70411;BME280;57832;46.038;11.398;2023-02-10T02:06:27;98684.38;;;-6.79;100.00
70411;BME280;57832;46.038;11.398;2023-02-10T02:08:52;98682.38;;;-6.74;100.00
70411;BME280;57832;46.038;11.398;2023-02-10T02:16:52;98680.13;;;-6.35;100.00
70411;BME280;57832;46.038;11.398;2023-02-10T02:31:08;98667.72;;;-6.41;100.00
70411;BME280;57832;46.038;11.398;2023-02-10T02:33:43;98655.50;;;-6.50;100.00
70411;BME280;57832;46.038;11.398;2023-02-10T02:38:43;98662.44;;;-6.52;100.00
70411;BME280;57832;46.038;11.398;2023-02-10T02:41:10;98663.63;;;-6.73;100.00
70411;BME280;57832;46.038;11.398;2023-02-10T02:43:36;98665.44;;;-6.60;100.00
70411;BME280;57832;46.038;11.398;2023-02-10T02:46:52;98668.16;;;-6.78;100.00
70411;BME280;57832;46.038;11.398;2023-02-10T02:49:03;98670.91;;;-6.81;100.00
70411;BME280;57832;46.038;11.398;2023-02-10T02:51:41;98677.81;;;-6.83;100.00
70411;BME280;57832;46.038;11.398;2023-02-10T02:54:19;98670.25;;;-6.84;100.00
70411;BME280;57832;46.038;11.398;2023-02-10T02:59:33;98671.91;;;-6.83;100.00
70411;BME280;57832;46.038;11.398;2023-02-10T03:02:03;98679.03;;;-6.74;100.00
70411;BME280;57832;46.038;11.398;2023-02-10T03:04:31;98677.63;;;-6.94;100.00
70411;BME280;57832;46.038;11.398;2023-02-10T03:06:59;98676.53;;;-6.90;100.00
70411;BME280;57832;46.038;11.398;2023-02-10T03:09:24;98676.06;;;-6.82;100.00
70411;BME280;57832;46.038;11.398;2023-02-10T03:11:50;98673.25;;;-6.92;100.00
70411;BME280;57832;46.038;11.398;2023-02-10T03:14:16;98672.06;;;-6.86;100.00
70411;BME280;57832;46.038;11.398;2023-02-10T03:16:41;98672.81;;;-6.70;100.00
70411;BME280;57832;46.038;11.398;2023-02-10T03:19:07;98677.03;;;-6.69;100.00
70411;BME280;57832;46.038;11.398;2023-02-10T03:21:32;98670.91;;;-6.81;100.00
70411;BME280;57832;46.038;11.398;2023-02-10T03:23:58;98668.69;;;-6.87;100.00
70411;BME280;57832;46.038;11.398;2023-02-10T03:26:27;98678.53;;;-6.95;100.00
70411;BME280;57832;46.038;11.398;2023-02-10T03:28:52;98679.91;;;-6.90;100.00
70411;BME280;57832;46.038;11.398;2023-02-10T03:31:18;98675.06;;;-6.80;100.00
70411;BME280;57832;46.038;11.398;2023-02-10T03:33:43;98677.16;;;-6.86;100.00
70411;BME280;57832;46.038;11.398;2023-02-10T03:36:09;98667.25;;;-6.77;100.00
70411;BME280;57832;46.038;11.398;2023-02-10T03:38:35;98662.25;;;-6.78;100.00
70411;BME280;57832;46.038;11.398;2023-02-10T03:41:01;98666.25;;;-6.74;100.00
70411;BME280;57832;46.038;11.398;2023-02-10T03:43:26;98662.78;;;-6.87;100.00
70411;BME280;57832;46.038;11.398;2023-02-10T03:45:52;98664.72;;;-6.77;100.00
70411;BME280;57832;46.038;11.398;2023-02-10T03:48:17;98670.91;;;-6.81;100.00
70411;BME280;57832;46.038;11.398;2023-02-10T03:50:44;98664.69;;;-6.91;100.00
70411;BME280;57832;46.038;11.398;2023-02-10T03:53:10;98656.94;;;-6.90;100.00
70411;BME280;57832;46.038;11.398;2023-02-10T03:55:36;98651.75;;;-6.88;100.00
70411;BME280;57832;46.038;11.398;2023-02-10T03:58:02;98655.94;;;-6.87;100.00
70411;BME280;57832;46.038;11.398;2023-02-10T04:00:29;98661.31;;;-6.92;100.00
70411;BME280;57832;46.038;11.398;2023-02-10T04:02:54;98670.06;;;-6.81;100.00
70411;BME280;57832;46.038;11.398;2023-02-10T04:05:20;98675.72;;;-6.76;100.00
70411;BME280;57832;46.038;11.398;2023-02-10T04:07:46;98674.72;;;-6.88;100.00
70411;BME280;57832;46.038;11.398;2023-02-10T04:10:12;98680.00;;;-6.91;100.00
70411;BME280;57832;46.038;11.398;2023-02-10T04:12:37;98683.97;;;-7.01;100.00
70411;BME280;57832;46.038;11.398;2023-02-10T04:15:05;98677.22;;;-7.02;100.00
70411;BME280;57832;46.038;11.398;2023-02-10T04:17:31;98696.25;;;-6.78;100.00
70411;BME280;57832;46.038;11.398;2023-02-10T04:19:57;98689.16;;;-7.03;100.00
70411;BME280;57832;46.038;11.398;2023-02-10T04:22:22;98690.59;;;-7.13;100.00
70411;BME280;57832;46.038;11.398;2023-02-10T04:24:48;98687.00;;;-7.25;100.00
70411;BME280;57832;46.038;11.398;2023-02-10T04:27:13;98687.47;;;-7.18;100.00
70411;BME280;57832;46.038;11.398;2023-02-10T04:29:39;98675.09;;;-6.94;100.00
70411;BME280;57832;46.038;11.398;2023-02-10T04:32:06;98678.34;;;-6.92;100.00
70411;BME280;57832;46.038;11.398;2023-02-10T04:34:32;98674.38;;;-7.12;100.00
70411;BME280;57832;46.038;11.398;2023-02-10T04:36:58;98669.56;;;-7.02;100.00
70411;BME280;57832;46.038;11.398;2023-02-10T04:39:23;98674.16;;;-7.08;100.00
70411;BME280;57832;46.038;11.398;2023-02-10T04:41:49;98680.28;;;-7.26;100.00
70411;BME280;57832;46.038;11.398;2023-02-10T04:44:14;98678.88;;;-7.01;100.00
70411;BME280;57832;46.038;11.398;2023-02-10T04:46:40;98672.59;;;-6.96;100.00
70411;BME280;57832;46.038;11.398;2023-02-10T04:49:05;98683.72;;;-6.82;100.00
70411;BME280;57832;46.038;11.398;2023-02-10T04:51:31;98684.22;;;-6.76;100.00
70411;BME280;57832;46.038;11.398;2023-02-10T04:53:56;98687.75;;;-6.93;100.00
70411;BME280;57832;46.038;11.398;2023-02-10T04:56:22;98684.16;;;-7.04;100.00
70411;BME280;57832;46.038;11.398;2023-02-10T04:58:47;98688.69;;;-7.10;100.00
70411;BME280;57832;46.038;11.398;2023-02-10T05:01:13;98689.25;;;-7.04;100.00
70411;BME280;57832;46.038;11.398;2023-02-10T05:03:38;98682.59;;;-7.07;100.00
70411;BME280;57832;46.038;11.398;2023-02-10T05:06:13;98683.78;;;-6.98;100.00
70411;BME280;57832;46.038;11.398;2023-02-10T05:08:39;98677.22;;;-7.02;100.00
70411;BME280;57832;46.038;11.398;2023-02-10T05:11:08;98690.53;;;-6.97;100.00
70411;BME280;57832;46.038;11.398;2023-02-10T05:13:34;98694.75;;;-7.27;100.00
70411;BME280;57832;46.038;11.398;2023-02-10T05:16:00;98701.53;;;-7.11;100.00
70411;BME280;57832;46.038;11.398;2023-02-10T05:18:29;98696.72;;;-7.01;100.00
70411;BME280;57832;46.038;11.398;2023-02-10T05:20:54;98690.25;;;-7.07;100.00
70411;BME280;57832;46.038;11.398;2023-02-10T05:23:20;98693.56;;;-7.21;100.00
70411;BME280;57832;46.038;11.398;2023-02-10T05:25:46;98693.63;;;-7.07;100.00
70411;BME280;57832;46.038;11.398;2023-02-10T05:28:11;98699.31;;;-6.87;100.00
70411;BME280;57832;46.038;11.398;2023-02-10T05:30:37;98700.69;;;-6.81;100.00
70411;BME280;57832;46.038;11.398;2023-02-10T05:33:02;98699.47;;;-7.04;100.00
70411;BME280;57832;46.038;11.398;2023-02-10T05:35:28;98698.56;;;-6.89;100.00
70411;BME280;57832;46.038;11.398;2023-02-10T05:37:53;98699.34;;;-7.17;100.00
70411;BME280;57832;46.038;11.398;2023-02-10T05:40:19;98706.56;;;-7.10;100.00
70411;BME280;57832;46.038;11.398;2023-02-10T05:42:45;98715.72;;;-6.91;100.00
70411;BME280;57832;46.038;11.398;2023-02-10T05:45:10;98709.88;;;-6.93;100.00
70411;BME280;57832;46.038;11.398;2023-02-10T05:47:36;98720.78;;;-7.06;100.00
70411;BME280;57832;46.038;11.398;2023-02-10T05:50:01;98718.75;;;-7.15;100.00
70411;BME280;57832;46.038;11.398;2023-02-10T05:52:27;98728.53;;;-7.07;100.00
70411;BME280;57832;46.038;11.398;2023-02-10T05:54:52;98723.28;;;-7.20;100.00
70411;BME280;57832;46.038;11.398;2023-02-10T05:57:18;98729.19;;;-7.03;100.00
70411;BME280;57832;46.038;11.398;2023-02-10T05:59:43;98728.63;;;-7.09;100.00
70411;BME280;57832;46.038;11.398;2023-02-10T06:02:09;98727.28;;;-7.16;100.00
70411;BME280;57832;46.038;11.398;2023-02-10T06:04:34;98725.88;;;-7.06;100.00
70411;BME280;57832;46.038;11.398;2023-02-10T06:07:00;98728.22;;;-7.17;100.00
70411;BME280;57832;46.038;11.398;2023-02-10T06:09:25;98719.84;;;-7.35;100.00
70411;BME280;57832;46.038;11.398;2023-02-10T06:11:52;98728.06;;;-7.30;100.00
70411;BME280;57832;46.038;11.398;2023-02-10T06:14:18;98735.91;;;-7.33;100.00
70411;BME280;57832;46.038;11.398;2023-02-10T06:16:44;98733.91;;;-7.44;100.00
70411;BME280;57832;46.038;11.398;2023-02-10T06:19:10;98747.56;;;-7.29;100.00
70411;BME280;57832;46.038;11.398;2023-02-10T06:21:35;98749.66;;;-7.05;100.00
70411;BME280;57832;46.038;11.398;2023-02-10T06:24:01;98752.09;;;-7.18;100.00
70411;BME280;57832;46.038;11.398;2023-02-10T06:26:27;98749.13;;;-7.26;100.00
70411;BME280;57832;46.038;11.398;2023-02-10T06:28:53;98753.31;;;-7.25;100.00
70411;BME280;57832;46.038;11.398;2023-02-10T06:31:19;98758.25;;;-7.22;100.00
70411;BME280;57832;46.038;11.398;2023-02-10T06:33:45;98756.69;;;-7.25;100.00
70411;BME280;57832;46.038;11.398;2023-02-10T06:36:11;98754.63;;;-7.18;100.00
70411;BME280;57832;46.038;11.398;2023-02-10T06:38:37;98758.47;;;-7.11;100.00
70411;BME280;57832;46.038;11.398;2023-02-10T06:41:04;98760.06;;;-7.24;100.00
70411;BME280;57832;46.038;11.398;2023-02-10T06:43:30;98769.34;;;-7.07;100.00
70411;BME280;57832;46.038;11.398;2023-02-10T06:45:56;98774.78;;;-7.29;100.00
70411;BME280;57832;46.038;11.398;2023-02-10T06:48:21;98776.09;;;-7.06;100.00
70411;BME280;57832;46.038;11.398;2023-02-10T06:50:47;98777.00;;;-7.23;100.00
70411;BME280;57832;46.038;11.398;2023-02-10T06:53:12;98774.69;;;-7.12;100.00
70411;BME280;57832;46.038;11.398;2023-02-10T06:55:38;98780.38;;;-7.39;100.00
70411;BME280;57832;46.038;11.398;2023-02-10T06:58:03;98784.47;;;-7.20;100.00
70411;BME280;57832;46.038;11.398;2023-02-10T07:00:30;98790.28;;;-6.86;100.00
70411;BME280;57832;46.038;11.398;2023-02-10T07:02:58;98787.34;;;-6.94;100.00
70411;BME280;57832;46.038;11.398;2023-02-10T07:05:24;98789.66;;;-7.06;100.00
70411;BME280;57832;46.038;11.398;2023-02-10T07:07:50;98798.53;;;-6.97;100.00
70411;BME280;57832;46.038;11.398;2023-02-10T07:10:24;98803.56;;;-6.95;100.00
70411;BME280;57832;46.038;11.398;2023-02-10T07:12:50;98805.19;;;-6.94;100.00
70411;BME280;57832;46.038;11.398;2023-02-10T07:15:17;98807.25;;;-6.85;100.00
70411;BME280;57832;46.038;11.398;2023-02-10T07:17:44;98805.69;;;-6.73;100.00
70411;BME280;57832;46.038;11.398;2023-02-10T07:20:10;98811.22;;;-6.95;100.00
70411;BME280;57832;46.038;11.398;2023-02-10T07:22:36;98804.19;;;-6.76;100.00
70411;BME280;57832;46.038;11.398;2023-02-10T07:25:02;98807.53;;;-6.75;100.00
70411;BME280;57832;46.038;11.398;2023-02-10T07:27:28;98801.13;;;-6.82;100.00
70411;BME280;57832;46.038;11.398;2023-02-10T07:29:53;98798.84;;;-6.87;100.00
70411;BME280;57832;46.038;11.398;2023-02-10T07:32:19;98784.47;;;-7.04;100.00
70411;BME280;57832;46.038;11.398;2023-02-10T07:34:44;98789.41;;;-7.01;100.00
70411;BME280;57832;46.038;11.398;2023-02-10T07:37:11;98789.66;;;-7.06;100.00
70411;BME280;57832;46.038;11.398;2023-02-10T07:39:37;98788.25;;;-6.95;100.00
70411;BME280;57832;46.038;11.398;2023-02-10T07:42:03;98793.06;;;-6.91;100.00
70411;BME280;57832;46.038;11.398;2023-02-10T07:44:28;98805.84;;;-6.91;100.00
70411;BME280;57832;46.038;11.398;2023-02-10T07:46:54;98805.59;;;-6.86;100.00
70411;BME280;57832;46.038;11.398;2023-02-10T07:49:19;98808.72;;;-6.66;100.00
70411;BME280;57832;46.038;11.398;2023-02-10T07:51:45;98802.81;;;-6.97;100.00
70411;BME280;57832;46.038;11.398;2023-02-10T07:54:11;98810.72;;;-7.02;100.00
70411;BME280;57832;46.038;11.398;2023-02-10T07:56:36;98815.34;;;-7.09;100.00
70411;BME280;57832;46.038;11.398;2023-02-10T07:59:02;98822.81;;;-7.06;100.00
70411;BME280;57832;46.038;11.398;2023-02-10T08:01:28;98822.41;;;-6.98;100.00
70411;BME280;57832;46.038;11.398;2023-02-10T08:03:53;98824.94;;;-6.82;100.00
70411;BME280;57832;46.038;11.398;2023-02-10T08:06:20;98814.97;;;-6.86;100.00
70411;BME280;57832;46.038;11.398;2023-02-10T08:08:47;98818.75;;;-6.78;100.00
70411;BME280;57832;46.038;11.398;2023-02-10T08:11:12;98816.56;;;-6.69;100.00
70411;BME280;57832;46.038;11.398;2023-02-10T08:13:38;98824.13;;;-6.68;100.00
70411;BME280;57832;46.038;11.398;2023-02-10T08:16:05;98817.47;;;-6.70;100.00
70411;BME280;57832;46.038;11.398;2023-02-10T08:18:34;98817.88;;;-6.62;100.00
70411;BME280;57832;46.038;11.398;2023-02-10T08:21:00;98819.31;;;-6.42;100.00
70411;BME280;57832;46.038;11.398;2023-02-10T08:23:26;98820.28;;;-6.45;100.00
70411;BME280;57832;46.038;11.398;2023-02-10T08:25:52;98814.38;;;-6.31;100.00
70411;BME280;57832;46.038;11.398;2023-02-10T08:28:18;98819.34;;;-6.58;100.00
70411;BME280;57832;46.038;11.398;2023-02-10T08:30:43;98825.81;;;-6.83;100.00
70411;BME280;57832;46.038;11.398;2023-02-10T08:33:11;98830.81;;;-6.65;100.00
70411;BME280;57832;46.038;11.398;2023-02-10T08:35:39;98825.50;;;-6.46;100.00
70411;BME280;57832;46.038;11.398;2023-02-10T08:38:05;98834.09;;;-6.63;100.00
70411;BME280;57832;46.038;11.398;2023-02-10T08:40:32;98825.56;;;-6.48;100.00
70411;BME280;57832;46.038;11.398;2023-02-10T08:42:58;98831.53;;;-6.33;100.00
70411;BME280;57832;46.038;11.398;2023-02-10T08:45:24;98838.84;;;-6.27;100.00
70411;BME280;57832;46.038;11.398;2023-02-10T08:47:49;98834.38;;;-6.23;100.00
70411;BME280;57832;46.038;11.398;2023-02-10T08:50:15;98836.56;;;-6.31;100.00
70411;BME280;57832;46.038;11.398;2023-02-10T08:52:40;98845.34;;;-6.07;100.00
70411;BME280;57832;46.038;11.398;2023-02-10T08:55:06;98843.75;;;-5.95;100.00
70411;BME280;57832;46.038;11.398;2023-02-10T08:57:33;98846.63;;;-5.99;100.00
70411;BME280;57832;46.038;11.398;2023-02-10T09:00:00;98842.88;;;-6.08;100.00
70411;BME280;57832;46.038;11.398;2023-02-10T09:02:27;98843.25;;;-6.00;100.00
70411;BME280;57832;46.038;11.398;2023-02-10T09:04:53;98854.09;;;-6.11;100.00
70411;BME280;57832;46.038;11.398;2023-02-10T09:07:18;98845.25;;;-6.05;100.00
70411;BME280;57832;46.038;11.398;2023-02-10T09:09:44;98846.72;;;-6.01;100.00
70411;BME280;57832;46.038;11.398;2023-02-10T09:12:12;98842.03;;;-5.80;100.00
70411;BME280;57832;46.038;11.398;2023-02-10T09:14:42;98839.13;;;-5.74;100.00
70411;BME280;57832;46.038;11.398;2023-02-10T09:17:08;98840.78;;;-5.73;100.00
70411;BME280;57832;46.038;11.398;2023-02-10T09:19:35;98833.75;;;-5.69;100.00
70411;BME280;57832;46.038;11.398;2023-02-10T09:22:03;98840.38;;;-5.52;100.00
70411;BME280;57832;46.038;11.398;2023-02-10T09:24:29;98837.81;;;-5.52;100.00
70411;BME280;57832;46.038;11.398;2023-02-10T09:26:54;98836.38;;;-5.56;100.00
70411;BME280;57832;46.038;11.398;2023-02-10T09:29:20;98835.81;;;-5.47;100.00
70411;BME280;57832;46.038;11.398;2023-02-10T09:31:45;98833.66;;;-5.82;100.00
70411;BME280;57832;46.038;11.398;2023-02-10T09:34:13;98840.22;;;-5.49;100.00
70411;BME280;57832;46.038;11.398;2023-02-10T09:36:39;98840.00;;;-5.46;100.00
70411;BME280;57832;46.038;11.398;2023-02-10T09:39:05;98841.81;;;-5.48;100.00
70411;BME280;57832;46.038;11.398;2023-02-10T09:44:21;98848.66;;;-5.19;100.00
70411;BME280;57832;46.038;11.398;2023-02-10T09:55:00;98843.09;;;2.08;100.00
70411;BME280;57832;46.038;11.398;2023-02-10T09:57:37;98843.72;;;5.30;100.00
70411;BME280;57832;46.038;11.398;2023-02-10T10:00:22;98825.56;;;9.96;52.14
70411;BME280;57832;46.038;11.398;2023-02-10T10:02:54;98822.91;;;10.24;41.54
70411;BME280;57832;46.038;11.398;2023-02-10T10:08:17;98819.53;;;2.66;86.77
70411;BME280;57832;46.038;11.398;2023-02-10T10:10:45;98815.38;;;3.01;74.85
70411;BME280;57832;46.038;11.398;2023-02-10T10:13:23;98820.53;;;4.00;71.71
70411;BME280;57832;46.038;11.398;2023-02-10T10:21:20;98808.41;;;6.01;65.33
70411;BME280;57832;46.038;11.398;2023-02-10T10:31:35;98800.47;;;9.58;39.35
70411;BME280;57832;46.038;11.398;2023-02-10T10:34:16;98799.47;;;13.29;31.36
70411;BME280;57832;46.038;11.398;2023-02-10T10:36:46;98782.84;;;11.99;31.97
70411;BME280;57832;46.038;11.398;2023-02-10T10:41:51;98780.69;;;7.49;41.35
70411;BME280;57832;46.038;11.398;2023-02-10T10:44:18;98778.00;;;6.96;38.03
70411;BME280;57832;46.038;11.398;2023-02-10T10:49:36;98765.63;;;7.75;38.18
70411;BME280;57832;46.038;11.398;2023-02-10T10:52:19;98760.91;;;5.58;39.74
70411;BME280;57832;46.038;11.398;2023-02-10T10:54:48;98759.38;;;7.23;39.59
70411;BME280;57832;46.038;11.398;2023-02-10T10:57:17;98749.69;;;6.62;37.57
70411;BME280;57832;46.038;11.398;2023-02-10T10:59:48;98745.19;;;10.65;31.51
70411;BME280;57832;46.038;11.398;2023-02-10T11:02:22;98731.16;;;13.97;28.88
70411;BME280;57832;46.038;11.398;2023-02-10T11:05:04;98725.38;;;14.98;24.74
70411;BME280;57832;46.038;11.398;2023-02-10T11:07:32;98726.66;;;16.14;25.30
70411;BME280;57832;46.038;11.398;2023-02-10T11:09:59;98718.94;;;13.33;26.65
70411;BME280;57832;46.038;11.398;2023-02-10T11:12:38;98725.69;;;7.66;32.54
70411;BME280;57832;46.038;11.398;2023-02-10T11:15:27;98717.78;;;6.51;32.62
70411;BME280;57832;46.038;11.398;2023-02-10T11:17:58;98719.84;;;7.94;32.28
70411;BME280;57832;46.038;11.398;2023-02-10T11:20:29;98714.38;;;8.40;33.05
70411;BME280;57832;46.038;11.398;2023-02-10T11:23:10;98703.25;;;7.03;34.07
70411;BME280;57832;46.038;11.398;2023-02-10T11:25:38;98702.94;;;8.41;33.03
70411;BME280;57832;46.038;11.398;2023-02-10T11:28:06;98706.56;;;8.25;31.03
70411;BME280;57832;46.038;11.398;2023-02-10T11:30:38;98684.78;;;9.26;31.73
70411;BME280;57832;46.038;11.398;2023-02-10T11:33:05;98683.41;;;10.00;31.65
70411;BME280;57832;46.038;11.398;2023-02-10T11:35:33;98679.22;;;13.10;27.51
70411;BME280;57832;46.038;11.398;2023-02-10T11:40:47;98666.81;;;18.54;22.22
70411;BME280;57832;46.038;11.398;2023-02-10T11:43:15;98675.06;;;14.20;24.16
70411;BME280;57832;46.038;11.398;2023-02-10T11:46:01;98671.81;;;8.46;28.12
70411;BME280;57832;46.038;11.398;2023-02-10T11:48:29;98658.44;;;10.18;28.17
70411;BME280;57832;46.038;11.398;2023-02-10T11:53:32;98649.91;;;9.89;28.80
70411;BME280;57832;46.038;11.398;2023-02-10T12:15:03;98619.63;;;13.52;24.86
70411;BME280;57832;46.038;11.398;2023-02-10T12:17:40;98619.09;;;12.17;27.08
70411;BME280;57832;46.038;11.398;2023-02-10T12:23:51;98612.16;;;10.39;29.67
70411;BME280;57832;46.038;11.398;2023-02-10T12:32:30;98600.06;;;10.64;29.54
70411;BME280;57832;46.038;11.398;2023-02-10T12:34:48;98593.59;;;10.80;29.58
70411;BME280;57832;46.038;11.398;2023-02-10T12:37:20;98588.56;;;10.65;28.63
70411;BME280;57832;46.038;11.398;2023-02-10T12:40:27;98585.34;;;12.90;26.41
70411;BME280;57832;46.038;11.398;2023-02-10T12:51:31;98571.56;;;8.39;28.68
70411;BME280;57832;46.038;11.398;2023-02-10T12:54:52;98569.34;;;9.56;27.97
70411;BME280;57832;46.038;11.398;2023-02-10T12:57:20;98567.94;;;9.18;27.87
70411;BME280;57832;46.038;11.398;2023-02-10T13:05:12;98564.03;;;9.43;28.28
70411;BME280;57832;46.038;11.398;2023-02-10T13:07:45;98554.09;;;12.25;27.72
70411;BME280;57832;46.038;11.398;2023-02-10T13:10:22;98544.44;;;14.77;24.51
70411;BME280;57832;46.038;11.398;2023-02-10T13:12:52;98547.41;;;9.22;28.42
70411;BME280;57832;46.038;11.398;2023-02-10T13:15:59;98555.31;;;9.84;30.05
70411;BME280;57832;46.038;11.398;2023-02-10T13:18:28;98552.13;;;8.98;30.77
70411;BME280;57832;46.038;11.398;2023-02-10T13:23:38;98540.78;;;9.26;30.74
70411;BME280;57832;46.038;11.398;2023-02-10T13:34:22;98529.25;;;11.36;28.38
70411;BME280;57832;46.038;11.398;2023-02-10T13:39:36;98520.16;;;8.03;31.14
70411;BME280;57832;46.038;11.398;2023-02-10T13:44:34;98526.25;;;7.52;32.18
70411;BME280;57832;46.038;11.398;2023-02-10T13:50:20;98525.69;;;8.15;32.57
70411;BME280;57832;46.038;11.398;2023-02-10T13:52:54;98524.91;;;7.78;32.11
70411;BME280;57832;46.038;11.398;2023-02-10T13:58:24;98523.03;;;7.35;32.52
70411;BME280;57832;46.038;11.398;2023-02-10T14:00:47;98527.91;;;7.23;33.56
70411;BME280;57832;46.038;11.398;2023-02-10T14:06:05;98527.66;;;6.88;33.63
70411;BME280;57832;46.038;11.398;2023-02-10T14:08:44;98526.38;;;6.84;34.11
70411;BME280;57832;46.038;11.398;2023-02-10T14:13:42;98533.47;;;6.90;34.39
70411;BME280;57832;46.038;11.398;2023-02-10T14:18:39;98527.19;;;6.99;34.86
70411;BME280;57832;46.038;11.398;2023-02-10T14:21:10;98528.34;;;6.67;34.62
70411;BME280;57832;46.038;11.398;2023-02-10T14:23:39;98521.47;;;6.51;34.99
70411;BME280;57832;46.038;11.398;2023-02-10T14:26:13;98527.81;;;6.33;35.56
70411;BME280;57832;46.038;11.398;2023-02-10T14:28:41;98525.38;;;6.70;36.23
70411;BME280;57832;46.038;11.398;2023-02-10T14:31:13;98526.69;;;6.51;35.18
70411;BME280;57832;46.038;11.398;2023-02-10T14:33:41;98525.53;;;6.30;35.28
70411;BME280;57832;46.038;11.398;2023-02-10T14:36:16;98523.63;;;6.47;34.96
70411;BME280;57832;46.038;11.398;2023-02-10T14:38:44;98515.72;;;6.56;35.80
70411;BME280;57832;46.038;11.398;2023-02-10T14:41:15;98510.19;;;6.35;34.88
70411;BME280;57832;46.038;11.398;2023-02-10T14:43:41;98518.78;;;6.21;35.00
70411;BME280;57832;46.038;11.398;2023-02-10T14:46:06;98508.78;;;6.10;35.40
70411;BME280;57832;46.038;11.398;2023-02-10T14:48:33;98509.09;;;6.30;35.73
70411;BME280;57832;46.038;11.398;2023-02-10T14:51:22;98496.72;;;6.09;35.78
70411;BME280;57832;46.038;11.398;2023-02-10T14:53:49;98502.41;;;6.12;36.24
70411;BME280;57832;46.038;11.398;2023-02-10T14:56:24;98501.25;;;6.15;36.69
70411;BME280;57832;46.038;11.398;2023-02-10T14:58:51;98504.91;;;6.06;37.01
70411;BME280;57832;46.038;11.398;2023-02-10T15:01:24;98495.28;;;6.06;36.76
70411;BME280;57832;46.038;11.398;2023-02-10T15:03:50;98504.78;;;5.99;36.59
70411;BME280;57832;46.038;11.398;2023-02-10T15:06:17;98504.69;;;5.84;36.62
70411;BME280;57832;46.038;11.398;2023-02-10T15:08:49;98504.00;;;5.90;37.82